sensor_id;sensor_type;location;lat;lon;timestamp;P1;durP1;ratioP1;P2;durP2;ratioP2
39032;SDS011;24794;51.982;5.878;2023-04-05T00:00:00;5.20;;;2.50;;
39032;SDS011;24794;51.982;5.878;2023-04-05T00:01:01;4.28;;;2.72;;
39032;SDS011;24794;51.982;5.878;2023-04-05T00:02:01;4.72;;;2.42;;
39032;SDS011;24794;51.982;5.878;2023-04-05T00:03:02;3.92;;;2.67;;
39032;SDS011;24794;51.982;5.878;2023-04-05T00:04:03;3.88;;;2.17;;
39032;SDS011;24794;51.982;5.878;2023-04-05T00:05:05;5.00;;;2.30;;
39032;SDS011;24794;51.982;5.878;2023-04-05T00:06:06;6.10;;;2.47;;
39032;SDS011;24794;51.982;5.878;2023-04-05T00:07:07;4.03;;;2.22;;
39032;SDS011;24794;51.982;5.878;2023-04-05T00:08:07;3.95;;;2.13;;
39032;SDS011;24794;51.982;5.878;2023-04-05T00:09:17;5.68;;;2.10;;
39032;SDS011;24794;51.982;5.878;2023-04-05T00:10:19;3.92;;;2.25;;
39032;SDS011;24794;51.982;5.878;2023-04-05T00:11:23;4.35;;;2.65;;
39032;SDS011;24794;51.982;5.878;2023-04-05T00:12:31;4.25;;;2.15;;
39032;SDS011;24794;51.982;5.878;2023-04-05T00:13:31;5.88;;;1.95;;
39032;SDS011;24794;51.982;5.878;2023-04-05T00:14:32;3.90;;;2.13;;
39032;SDS011;24794;51.982;5.878;2023-04-05T00:15:32;3.45;;;2.30;;
39032;SDS011;24794;51.982;5.878;2023-04-05T00:16:33;4.97;;;2.40;;
39032;SDS011;24794;51.982;5.878;2023-04-05T00:17:35;3.83;;;2.08;;
39032;SDS011;24794;51.982;5.878;2023-04-05T00:18:35;3.25;;;2.10;;
39032;SDS011;24794;51.982;5.878;2023-04-05T00:19:37;3.90;;;2.33;;
39032;SDS011;24794;51.982;5.878;2023-04-05T00:20:38;3.28;;;2.10;;
39032;SDS011;24794;51.982;5.878;2023-04-05T00:21:38;3.10;;;1.88;;
39032;SDS011;24794;51.982;5.878;2023-04-05T00:22:39;3.85;;;1.95;;
39032;SDS011;24794;51.982;5.878;2023-04-05T00:23:42;3.70;;;2.45;;
39032;SDS011;24794;51.982;5.878;2023-04-05T00:24:44;4.22;;;2.30;;
39032;SDS011;24794;51.982;5.878;2023-04-05T00:25:44;3.20;;;1.83;;
39032;SDS011;24794;51.982;5.878;2023-04-05T00:26:45;4.38;;;2.40;;
39032;SDS011;24794;51.982;5.878;2023-04-05T00:27:45;3.42;;;2.15;;
39032;SDS011;24794;51.982;5.878;2023-04-05T00:28:46;5.03;;;2.33;;
39032;SDS011;24794;51.982;5.878;2023-04-05T00:29:47;3.80;;;2.35;;
39032;SDS011;24794;51.982;5.878;2023-04-05T00:30:50;4.53;;;2.10;;
39032;SDS011;24794;51.982;5.878;2023-04-05T00:31:51;5.40;;;2.20;;
39032;SDS011;24794;51.982;5.878;2023-04-05T00:32:52;4.85;;;2.42;;
39032;SDS011;24794;51.982;5.878;2023-04-05T00:33:52;5.03;;;2.50;;
39032;SDS011;24794;51.982;5.878;2023-04-05T00:34:53;4.32;;;2.15;;
39032;SDS011;24794;51.982;5.878;2023-04-05T00:35:53;3.65;;;2.33;;
39032;SDS011;24794;51.982;5.878;2023-04-05T00:36:54;3.53;;;2.20;;
39032;SDS011;24794;51.982;5.878;2023-04-05T00:37:55;3.63;;;2.20;;
39032;SDS011;24794;51.982;5.878;2023-04-05T00:38:55;4.78;;;2.33;;
39032;SDS011;24794;51.982;5.878;2023-04-05T00:39:56;5.60;;;2.25;;
39032;SDS011;24794;51.982;5.878;2023-04-05T00:40:56;4.80;;;2.33;;
39032;SDS011;24794;51.982;5.878;2023-04-05T00:41:57;3.45;;;2.25;;
39032;SDS011;24794;51.982;5.878;2023-04-05T00:42:58;4.75;;;2.60;;
39032;SDS011;24794;51.982;5.878;2023-04-05T00:43:58;3.33;;;2.30;;
39032;SDS011;24794;51.982;5.878;2023-04-05T00:44:59;4.20;;;2.67;;
39032;SDS011;24794;51.982;5.878;2023-04-05T00:46:03;5.07;;;2.35;;
39032;SDS011;24794;51.982;5.878;2023-04-05T00:47:06;3.50;;;2.53;;
39032;SDS011;24794;51.982;5.878;2023-04-05T00:48:06;3.63;;;2.25;;
39032;SDS011;24794;51.982;5.878;2023-04-05T00:49:07;4.25;;;2.50;;
39032;SDS011;24794;51.982;5.878;2023-04-05T00:50:08;4.30;;;2.42;;
39032;SDS011;24794;51.982;5.878;2023-04-05T00:51:13;4.72;;;2.53;;
39032;SDS011;24794;51.982;5.878;2023-04-05T00:52:14;5.00;;;2.20;;
39032;SDS011;24794;51.982;5.878;2023-04-05T00:53:15;3.83;;;2.22;;
39032;SDS011;24794;51.982;5.878;2023-04-05T00:54:19;4.53;;;2.47;;
39032;SDS011;24794;51.982;5.878;2023-04-05T00:55:20;3.55;;;2.30;;
39032;SDS011;24794;51.982;5.878;2023-04-05T00:56:21;4.65;;;2.30;;
39032;SDS011;24794;51.982;5.878;2023-04-05T00:57:23;3.95;;;2.20;;
39032;SDS011;24794;51.982;5.878;2023-04-05T00:58:25;5.57;;;2.80;;
39032;SDS011;24794;51.982;5.878;2023-04-05T00:59:26;4.40;;;2.80;;
39032;SDS011;24794;51.982;5.878;2023-04-05T01:00:30;4.47;;;2.17;;
39032;SDS011;24794;51.982;5.878;2023-04-05T01:01:31;4.05;;;2.75;;
39032;SDS011;24794;51.982;5.878;2023-04-05T01:03:09;4.47;;;2.25;;
39032;SDS011;24794;51.982;5.878;2023-04-05T01:04:04;3.30;;;2.05;;
39032;SDS011;24794;51.982;5.878;2023-04-05T01:05:13;3.70;;;2.10;;
39032;SDS011;24794;51.982;5.878;2023-04-05T01:08:44;3.70;;;2.20;;
39032;SDS011;24794;51.982;5.878;2023-04-05T01:09:52;5.35;;;2.47;;
39032;SDS011;24794;51.982;5.878;2023-04-05T01:11:01;5.53;;;2.58;;
39032;SDS011;24794;51.982;5.878;2023-04-05T01:12:05;3.95;;;2.25;;
39032;SDS011;24794;51.982;5.878;2023-04-05T01:13:08;5.20;;;2.60;;
39032;SDS011;24794;51.982;5.878;2023-04-05T01:14:08;7.35;;;2.72;;
39032;SDS011;24794;51.982;5.878;2023-04-05T01:15:10;2.95;;;2.00;;
39032;SDS011;24794;51.982;5.878;2023-04-05T01:16:11;3.83;;;2.53;;
39032;SDS011;24794;51.982;5.878;2023-04-05T01:17:11;3.63;;;2.38;;
39032;SDS011;24794;51.982;5.878;2023-04-05T01:18:12;3.88;;;2.38;;
39032;SDS011;24794;51.982;5.878;2023-04-05T01:19:13;3.83;;;2.70;;
39032;SDS011;24794;51.982;5.878;2023-04-05T01:20:14;3.05;;;2.20;;
39032;SDS011;24794;51.982;5.878;2023-04-05T01:24:28;6.05;;;2.83;;
39032;SDS011;24794;51.982;5.878;2023-04-05T01:30:21;3.92;;;2.65;;
39032;SDS011;24794;51.982;5.878;2023-04-05T01:32:51;6.15;;;3.30;;
39032;SDS011;24794;51.982;5.878;2023-04-05T01:34:18;6.50;;;3.33;;
39032;SDS011;24794;51.982;5.878;2023-04-05T01:35:39;9.23;;;3.63;;
39032;SDS011;24794;51.982;5.878;2023-04-05T01:36:53;6.05;;;2.90;;
39032;SDS011;24794;51.982;5.878;2023-04-05T01:37:58;6.93;;;3.20;;
39032;SDS011;24794;51.982;5.878;2023-04-05T01:39:01;5.38;;;3.05;;
39032;SDS011;24794;51.982;5.878;2023-04-05T01:40:04;5.57;;;3.53;;
39032;SDS011;24794;51.982;5.878;2023-04-05T01:41:05;7.45;;;3.55;;
39032;SDS011;24794;51.982;5.878;2023-04-05T01:42:06;7.57;;;3.40;;
39032;SDS011;24794;51.982;5.878;2023-04-05T01:43:14;6.18;;;3.40;;
39032;SDS011;24794;51.982;5.878;2023-04-05T01:44:15;5.90;;;3.45;;
39032;SDS011;24794;51.982;5.878;2023-04-05T01:45:16;9.35;;;3.72;;
39032;SDS011;24794;51.982;5.878;2023-04-05T01:46:16;5.97;;;2.95;;
39032;SDS011;24794;51.982;5.878;2023-04-05T01:47:17;7.60;;;3.60;;
39032;SDS011;24794;51.982;5.878;2023-04-05T01:48:17;6.95;;;3.28;;
39032;SDS011;24794;51.982;5.878;2023-04-05T01:49:18;5.18;;;3.17;;
39032;SDS011;24794;51.982;5.878;2023-04-05T01:50:19;5.38;;;3.58;;
39032;SDS011;24794;51.982;5.878;2023-04-05T01:51:20;6.40;;;3.88;;
39032;SDS011;24794;51.982;5.878;2023-04-05T01:52:20;5.70;;;3.40;;
39032;SDS011;24794;51.982;5.878;2023-04-05T01:53:21;7.25;;;3.30;;
39032;SDS011;24794;51.982;5.878;2023-04-05T01:54:21;7.68;;;3.85;;
39032;SDS011;24794;51.982;5.878;2023-04-05T01:55:22;6.53;;;2.92;;
39032;SDS011;24794;51.982;5.878;2023-04-05T01:56:22;7.78;;;3.67;;
39032;SDS011;24794;51.982;5.878;2023-04-05T01:57:23;5.93;;;3.65;;
39032;SDS011;24794;51.982;5.878;2023-04-05T01:58:23;6.03;;;3.50;;
39032;SDS011;24794;51.982;5.878;2023-04-05T01:59:24;7.43;;;3.40;;
39032;SDS011;24794;51.982;5.878;2023-04-05T02:00:25;6.80;;;3.35;;
39032;SDS011;24794;51.982;5.878;2023-04-05T02:01:26;8.40;;;3.95;;
39032;SDS011;24794;51.982;5.878;2023-04-05T02:02:27;7.20;;;3.15;;
39032;SDS011;24794;51.982;5.878;2023-04-05T02:03:27;5.85;;;2.90;;
39032;SDS011;24794;51.982;5.878;2023-04-05T02:04:28;4.15;;;2.97;;
39032;SDS011;24794;51.982;5.878;2023-04-05T02:05:29;6.57;;;3.22;;
39032;SDS011;24794;51.982;5.878;2023-04-05T02:06:29;5.00;;;2.97;;
39032;SDS011;24794;51.982;5.878;2023-04-05T02:07:31;7.47;;;3.80;;
39032;SDS011;24794;51.982;5.878;2023-04-05T02:08:31;7.38;;;3.20;;
39032;SDS011;24794;51.982;5.878;2023-04-05T02:09:32;6.93;;;3.50;;
39032;SDS011;24794;51.982;5.878;2023-04-05T02:10:32;8.02;;;3.75;;
39032;SDS011;24794;51.982;5.878;2023-04-05T02:11:33;5.88;;;3.47;;
39032;SDS011;24794;51.982;5.878;2023-04-05T02:12:33;7.25;;;3.40;;
39032;SDS011;24794;51.982;5.878;2023-04-05T02:13:34;5.97;;;3.47;;
39032;SDS011;24794;51.982;5.878;2023-04-05T02:14:34;7.40;;;3.58;;
39032;SDS011;24794;51.982;5.878;2023-04-05T02:15:35;8.23;;;3.15;;
39032;SDS011;24794;51.982;5.878;2023-04-05T02:16:36;4.32;;;2.97;;
39032;SDS011;24794;51.982;5.878;2023-04-05T02:17:37;8.07;;;3.28;;
39032;SDS011;24794;51.982;5.878;2023-04-05T02:18:44;5.43;;;3.30;;
39032;SDS011;24794;51.982;5.878;2023-04-05T02:19:49;6.70;;;3.72;;
39032;SDS011;24794;51.982;5.878;2023-04-05T02:20:51;6.82;;;3.72;;
39032;SDS011;24794;51.982;5.878;2023-04-05T02:21:52;7.28;;;3.03;;
39032;SDS011;24794;51.982;5.878;2023-04-05T02:22:53;7.70;;;3.90;;
39032;SDS011;24794;51.982;5.878;2023-04-05T02:23:54;5.60;;;3.40;;
39032;SDS011;24794;51.982;5.878;2023-04-05T02:24:55;7.80;;;3.90;;
39032;SDS011;24794;51.982;5.878;2023-04-05T02:25:56;5.40;;;3.20;;
39032;SDS011;24794;51.982;5.878;2023-04-05T02:26:56;5.80;;;3.38;;
39032;SDS011;24794;51.982;5.878;2023-04-05T02:27:57;6.13;;;3.22;;
39032;SDS011;24794;51.982;5.878;2023-04-05T02:28:57;8.02;;;3.78;;
39032;SDS011;24794;51.982;5.878;2023-04-05T02:29:58;9.20;;;3.65;;
39032;SDS011;24794;51.982;5.878;2023-04-05T02:30:59;5.97;;;3.28;;
39032;SDS011;24794;51.982;5.878;2023-04-05T02:31:59;6.47;;;3.28;;
39032;SDS011;24794;51.982;5.878;2023-04-05T02:33:00;6.22;;;3.30;;
39032;SDS011;24794;51.982;5.878;2023-04-05T02:34:00;6.15;;;3.60;;
39032;SDS011;24794;51.982;5.878;2023-04-05T02:35:01;7.30;;;3.35;;
39032;SDS011;24794;51.982;5.878;2023-04-05T02:36:05;4.85;;;3.08;;
39032;SDS011;24794;51.982;5.878;2023-04-05T02:37:08;7.80;;;3.50;;
39032;SDS011;24794;51.982;5.878;2023-04-05T02:38:09;7.50;;;3.72;;
39032;SDS011;24794;51.982;5.878;2023-04-05T02:39:09;5.57;;;3.03;;
39032;SDS011;24794;51.982;5.878;2023-04-05T02:40:11;8.00;;;3.20;;
39032;SDS011;24794;51.982;5.878;2023-04-05T02:41:13;7.78;;;3.40;;
39032;SDS011;24794;51.982;5.878;2023-04-05T02:42:14;6.85;;;3.50;;
39032;SDS011;24794;51.982;5.878;2023-04-05T02:43:15;6.88;;;3.50;;
39032;SDS011;24794;51.982;5.878;2023-04-05T02:44:15;7.97;;;3.58;;
39032;SDS011;24794;51.982;5.878;2023-04-05T02:45:16;6.95;;;3.05;;
39032;SDS011;24794;51.982;5.878;2023-04-05T02:46:16;6.15;;;3.08;;
39032;SDS011;24794;51.982;5.878;2023-04-05T02:47:17;5.68;;;3.55;;
39032;SDS011;24794;51.982;5.878;2023-04-05T02:48:20;4.68;;;3.08;;
39032;SDS011;24794;51.982;5.878;2023-04-05T02:49:21;6.00;;;3.00;;
39032;SDS011;24794;51.982;5.878;2023-04-05T02:50:21;5.75;;;3.35;;
39032;SDS011;24794;51.982;5.878;2023-04-05T02:51:22;8.95;;;3.72;;
39032;SDS011;24794;51.982;5.878;2023-04-05T02:52:23;8.68;;;3.55;;
39032;SDS011;24794;51.982;5.878;2023-04-05T02:53:23;4.90;;;3.10;;
39032;SDS011;24794;51.982;5.878;2023-04-05T02:54:24;6.32;;;3.97;;
39032;SDS011;24794;51.982;5.878;2023-04-05T02:55:25;6.65;;;3.55;;
39032;SDS011;24794;51.982;5.878;2023-04-05T02:56:28;6.60;;;3.63;;
39032;SDS011;24794;51.982;5.878;2023-04-05T02:57:29;6.70;;;3.47;;
39032;SDS011;24794;51.982;5.878;2023-04-05T02:58:29;8.15;;;3.88;;
39032;SDS011;24794;51.982;5.878;2023-04-05T02:59:30;6.25;;;3.50;;
39032;SDS011;24794;51.982;5.878;2023-04-05T03:00:30;7.38;;;3.90;;
39032;SDS011;24794;51.982;5.878;2023-04-05T03:01:31;5.78;;;3.40;;
39032;SDS011;24794;51.982;5.878;2023-04-05T03:02:32;5.05;;;2.80;;
39032;SDS011;24794;51.982;5.878;2023-04-05T03:03:32;7.18;;;3.30;;
39032;SDS011;24794;51.982;5.878;2023-04-05T03:04:36;7.53;;;3.22;;
39032;SDS011;24794;51.982;5.878;2023-04-05T03:05:37;5.57;;;3.53;;
39032;SDS011;24794;51.982;5.878;2023-04-05T03:06:38;6.53;;;3.20;;
39032;SDS011;24794;51.982;5.878;2023-04-05T03:07:38;6.30;;;3.70;;
39032;SDS011;24794;51.982;5.878;2023-04-05T03:08:41;7.05;;;3.75;;
39032;SDS011;24794;51.982;5.878;2023-04-05T03:09:48;5.50;;;3.38;;
39032;SDS011;24794;51.982;5.878;2023-04-05T03:10:52;6.18;;;3.42;;
39032;SDS011;24794;51.982;5.878;2023-04-05T03:11:53;5.95;;;3.00;;
39032;SDS011;24794;51.982;5.878;2023-04-05T03:12:53;7.40;;;3.60;;
39032;SDS011;24794;51.982;5.878;2023-04-05T03:13:54;7.13;;;3.55;;
39032;SDS011;24794;51.982;5.878;2023-04-05T03:14:55;5.72;;;3.53;;
39032;SDS011;24794;51.982;5.878;2023-04-05T03:15:55;5.15;;;3.30;;
39032;SDS011;24794;51.982;5.878;2023-04-05T03:16:56;5.25;;;3.58;;
39032;SDS011;24794;51.982;5.878;2023-04-05T03:17:57;5.07;;;3.13;;
39032;SDS011;24794;51.982;5.878;2023-04-05T03:18:57;7.32;;;4.03;;
39032;SDS011;24794;51.982;5.878;2023-04-05T03:19:58;5.57;;;2.88;;
39032;SDS011;24794;51.982;5.878;2023-04-05T03:20:59;7.68;;;3.92;;
39032;SDS011;24794;51.982;5.878;2023-04-05T03:22:00;6.15;;;3.10;;
39032;SDS011;24794;51.982;5.878;2023-04-05T03:23:00;4.00;;;2.90;;
39032;SDS011;24794;51.982;5.878;2023-04-05T03:24:02;7.57;;;3.38;;
39032;SDS011;24794;51.982;5.878;2023-04-05T03:25:03;7.18;;;3.70;;
39032;SDS011;24794;51.982;5.878;2023-04-05T03:26:04;6.88;;;3.53;;
39032;SDS011;24794;51.982;5.878;2023-04-05T03:27:05;6.22;;;3.15;;
39032;SDS011;24794;51.982;5.878;2023-04-05T03:28:06;7.72;;;3.63;;
39032;SDS011;24794;51.982;5.878;2023-04-05T03:29:08;7.70;;;3.90;;
39032;SDS011;24794;51.982;5.878;2023-04-05T03:30:09;6.80;;;3.85;;
39032;SDS011;24794;51.982;5.878;2023-04-05T03:31:10;8.05;;;3.70;;
39032;SDS011;24794;51.982;5.878;2023-04-05T03:32:11;8.90;;;4.20;;
39032;SDS011;24794;51.982;5.878;2023-04-05T03:33:12;6.28;;;4.10;;
39032;SDS011;24794;51.982;5.878;2023-04-05T03:34:13;7.57;;;4.05;;
39032;SDS011;24794;51.982;5.878;2023-04-05T03:35:13;11.10;;;3.92;;
39032;SDS011;24794;51.982;5.878;2023-04-05T03:36:15;10.38;;;4.20;;
39032;SDS011;24794;51.982;5.878;2023-04-05T03:37:16;8.02;;;3.85;;
39032;SDS011;24794;51.982;5.878;2023-04-05T03:38:17;7.55;;;4.05;;
39032;SDS011;24794;51.982;5.878;2023-04-05T03:39:17;7.88;;;3.40;;
39032;SDS011;24794;51.982;5.878;2023-04-05T03:40:18;7.07;;;3.80;;
39032;SDS011;24794;51.982;5.878;2023-04-05T03:41:18;8.25;;;3.90;;
39032;SDS011;24794;51.982;5.878;2023-04-05T03:42:19;8.35;;;3.58;;
39032;SDS011;24794;51.982;5.878;2023-04-05T03:43:20;6.35;;;3.65;;
39032;SDS011;24794;51.982;5.878;2023-04-05T03:44:20;7.10;;;3.40;;
39032;SDS011;24794;51.982;5.878;2023-04-05T03:45:21;7.88;;;3.90;;
39032;SDS011;24794;51.982;5.878;2023-04-05T03:46:22;6.70;;;3.90;;
39032;SDS011;24794;51.982;5.878;2023-04-05T03:47:22;7.32;;;3.72;;
39032;SDS011;24794;51.982;5.878;2023-04-05T03:48:23;5.00;;;3.33;;
39032;SDS011;24794;51.982;5.878;2023-04-05T03:49:23;7.57;;;3.85;;
39032;SDS011;24794;51.982;5.878;2023-04-05T03:50:25;7.47;;;3.50;;
39032;SDS011;24794;51.982;5.878;2023-04-05T03:51:25;6.10;;;3.63;;
39032;SDS011;24794;51.982;5.878;2023-04-05T03:52:26;7.47;;;4.00;;
39032;SDS011;24794;51.982;5.878;2023-04-05T03:53:27;7.68;;;4.30;;
39032;SDS011;24794;51.982;5.878;2023-04-05T03:54:28;5.57;;;3.63;;
39032;SDS011;24794;51.982;5.878;2023-04-05T03:55:29;6.90;;;3.75;;
39032;SDS011;24794;51.982;5.878;2023-04-05T03:56:31;7.43;;;4.22;;
39032;SDS011;24794;51.982;5.878;2023-04-05T03:57:31;5.38;;;3.72;;
39032;SDS011;24794;51.982;5.878;2023-04-05T03:58:32;8.02;;;4.28;;
39032;SDS011;24794;51.982;5.878;2023-04-05T03:59:33;6.55;;;3.95;;
39032;SDS011;24794;51.982;5.878;2023-04-05T04:00:33;7.50;;;4.00;;
39032;SDS011;24794;51.982;5.878;2023-04-05T04:01:34;6.10;;;3.75;;
39032;SDS011;24794;51.982;5.878;2023-04-05T04:02:35;8.60;;;4.10;;
39032;SDS011;24794;51.982;5.878;2023-04-05T04:03:36;7.38;;;3.90;;
39032;SDS011;24794;51.982;5.878;2023-04-05T04:04:37;6.95;;;4.03;;
39032;SDS011;24794;51.982;5.878;2023-04-05T04:05:37;6.03;;;3.83;;
39032;SDS011;24794;51.982;5.878;2023-04-05T04:06:38;8.68;;;4.00;;
39032;SDS011;24794;51.982;5.878;2023-04-05T04:07:38;6.70;;;3.88;;
39032;SDS011;24794;51.982;5.878;2023-04-05T04:08:40;6.78;;;3.75;;
39032;SDS011;24794;51.982;5.878;2023-04-05T04:09:41;7.00;;;3.40;;
39032;SDS011;24794;51.982;5.878;2023-04-05T04:10:41;7.85;;;4.38;;
39032;SDS011;24794;51.982;5.878;2023-04-05T04:11:42;7.55;;;3.95;;
39032;SDS011;24794;51.982;5.878;2023-04-05T04:12:43;8.77;;;4.07;;
39032;SDS011;24794;51.982;5.878;2023-04-05T04:13:44;7.13;;;4.20;;
39032;SDS011;24794;51.982;5.878;2023-04-05T04:14:45;9.75;;;4.00;;
39032;SDS011;24794;51.982;5.878;2023-04-05T04:15:45;6.13;;;4.10;;
39032;SDS011;24794;51.982;5.878;2023-04-05T04:16:46;6.18;;;3.97;;
39032;SDS011;24794;51.982;5.878;2023-04-05T04:17:46;6.63;;;3.60;;
39032;SDS011;24794;51.982;5.878;2023-04-05T04:18:47;8.25;;;4.03;;
39032;SDS011;24794;51.982;5.878;2023-04-05T04:19:47;6.88;;;3.33;;
39032;SDS011;24794;51.982;5.878;2023-04-05T04:20:48;7.18;;;3.70;;
39032;SDS011;24794;51.982;5.878;2023-04-05T04:21:51;7.10;;;3.53;;
39032;SDS011;24794;51.982;5.878;2023-04-05T04:22:51;5.32;;;3.25;;
39032;SDS011;24794;51.982;5.878;2023-04-05T04:23:52;4.70;;;2.78;;
39032;SDS011;24794;51.982;5.878;2023-04-05T04:24:54;7.07;;;4.00;;
39032;SDS011;24794;51.982;5.878;2023-04-05T04:25:55;6.05;;;3.45;;
39032;SDS011;24794;51.982;5.878;2023-04-05T04:26:55;5.88;;;3.65;;
39032;SDS011;24794;51.982;5.878;2023-04-05T04:27:56;8.05;;;3.78;;
39032;SDS011;24794;51.982;5.878;2023-04-05T04:28:57;8.10;;;3.65;;
39032;SDS011;24794;51.982;5.878;2023-04-05T04:29:57;7.72;;;4.10;;
39032;SDS011;24794;51.982;5.878;2023-04-05T04:31:02;5.65;;;3.85;;
39032;SDS011;24794;51.982;5.878;2023-04-05T04:32:03;6.65;;;3.50;;
39032;SDS011;24794;51.982;5.878;2023-04-05T04:33:05;7.00;;;3.72;;
39032;SDS011;24794;51.982;5.878;2023-04-05T04:34:07;6.07;;;3.45;;
39032;SDS011;24794;51.982;5.878;2023-04-05T04:35:09;5.93;;;3.50;;
39032;SDS011;24794;51.982;5.878;2023-04-05T04:36:09;6.97;;;3.63;;
39032;SDS011;24794;51.982;5.878;2023-04-05T04:37:12;6.85;;;4.03;;
39032;SDS011;24794;51.982;5.878;2023-04-05T04:38:16;7.50;;;3.55;;
39032;SDS011;24794;51.982;5.878;2023-04-05T04:39:20;6.93;;;4.05;;
39032;SDS011;24794;51.982;5.878;2023-04-05T04:40:29;7.45;;;4.38;;
39032;SDS011;24794;51.982;5.878;2023-04-05T04:41:37;7.32;;;3.83;;
39032;SDS011;24794;51.982;5.878;2023-04-05T04:42:38;8.52;;;3.90;;
39032;SDS011;24794;51.982;5.878;2023-04-05T04:43:43;9.20;;;3.92;;
39032;SDS011;24794;51.982;5.878;2023-04-05T04:44:44;7.15;;;3.83;;
39032;SDS011;24794;51.982;5.878;2023-04-05T04:45:45;6.20;;;3.55;;
39032;SDS011;24794;51.982;5.878;2023-04-05T04:46:47;8.65;;;4.32;;
39032;SDS011;24794;51.982;5.878;2023-04-05T04:47:53;5.65;;;3.65;;
39032;SDS011;24794;51.982;5.878;2023-04-05T04:48:54;6.18;;;3.50;;
39032;SDS011;24794;51.982;5.878;2023-04-05T04:49:56;6.93;;;3.83;;
39032;SDS011;24794;51.982;5.878;2023-04-05T04:50:58;7.80;;;4.18;;
39032;SDS011;24794;51.982;5.878;2023-04-05T04:52:01;7.07;;;4.28;;
39032;SDS011;24794;51.982;5.878;2023-04-05T04:53:01;13.68;;;4.43;;
39032;SDS011;24794;51.982;5.878;2023-04-05T04:54:03;7.75;;;4.30;;
39032;SDS011;24794;51.982;5.878;2023-04-05T04:55:04;8.00;;;4.72;;
39032;SDS011;24794;51.982;5.878;2023-04-05T04:56:07;7.03;;;4.22;;
39032;SDS011;24794;51.982;5.878;2023-04-05T04:57:08;6.15;;;3.90;;
39032;SDS011;24794;51.982;5.878;2023-04-05T04:58:09;7.70;;;4.50;;
39032;SDS011;24794;51.982;5.878;2023-04-05T04:59:11;8.00;;;4.38;;
39032;SDS011;24794;51.982;5.878;2023-04-05T05:00:12;10.38;;;4.40;;
39032;SDS011;24794;51.982;5.878;2023-04-05T05:01:14;7.70;;;4.47;;
39032;SDS011;24794;51.982;5.878;2023-04-05T05:02:15;9.60;;;4.57;;
39032;SDS011;24794;51.982;5.878;2023-04-05T05:03:15;8.25;;;4.80;;
39032;SDS011;24794;51.982;5.878;2023-04-05T05:04:16;7.63;;;4.45;;
39032;SDS011;24794;51.982;5.878;2023-04-05T05:05:16;6.07;;;4.15;;
39032;SDS011;24794;51.982;5.878;2023-04-05T05:06:21;10.98;;;4.82;;
39032;SDS011;24794;51.982;5.878;2023-04-05T05:07:22;9.90;;;4.55;;
39032;SDS011;24794;51.982;5.878;2023-04-05T05:08:22;8.00;;;4.40;;
39032;SDS011;24794;51.982;5.878;2023-04-05T05:09:23;10.77;;;4.10;;
39032;SDS011;24794;51.982;5.878;2023-04-05T05:10:24;6.63;;;4.30;;
39032;SDS011;24794;51.982;5.878;2023-04-05T05:11:24;9.27;;;4.40;;
39032;SDS011;24794;51.982;5.878;2023-04-05T05:12:27;7.15;;;4.10;;
39032;SDS011;24794;51.982;5.878;2023-04-05T05:13:30;8.63;;;4.95;;
39032;SDS011;24794;51.982;5.878;2023-04-05T05:14:31;9.55;;;4.40;;
39032;SDS011;24794;51.982;5.878;2023-04-05T05:15:31;8.50;;;4.40;;
39032;SDS011;24794;51.982;5.878;2023-04-05T05:16:32;7.93;;;3.95;;
39032;SDS011;24794;51.982;5.878;2023-04-05T05:17:32;7.57;;;4.47;;
39032;SDS011;24794;51.982;5.878;2023-04-05T05:18:36;8.98;;;4.15;;
39032;SDS011;24794;51.982;5.878;2023-04-05T05:19:39;7.72;;;4.55;;
39032;SDS011;24794;51.982;5.878;2023-04-05T05:20:39;6.63;;;3.88;;
39032;SDS011;24794;51.982;5.878;2023-04-05T05:21:41;7.88;;;4.65;;
39032;SDS011;24794;51.982;5.878;2023-04-05T05:22:41;7.00;;;4.40;;
39032;SDS011;24794;51.982;5.878;2023-04-05T05:23:42;6.30;;;4.30;;
39032;SDS011;24794;51.982;5.878;2023-04-05T05:24:45;7.72;;;4.60;;
39032;SDS011;24794;51.982;5.878;2023-04-05T05:25:47;8.43;;;4.40;;
39032;SDS011;24794;51.982;5.878;2023-04-05T05:26:47;5.57;;;3.70;;
39032;SDS011;24794;51.982;5.878;2023-04-05T05:27:48;8.30;;;3.75;;
39032;SDS011;24794;51.982;5.878;2023-04-05T05:28:49;9.38;;;4.13;;
39032;SDS011;24794;51.982;5.878;2023-04-05T05:29:50;5.72;;;3.95;;
39032;SDS011;24794;51.982;5.878;2023-04-05T05:30:51;7.80;;;4.35;;
39032;SDS011;24794;51.982;5.878;2023-04-05T05:31:51;8.98;;;4.85;;
39032;SDS011;24794;51.982;5.878;2023-04-05T05:32:52;9.35;;;4.43;;
39032;SDS011;24794;51.982;5.878;2023-04-05T05:33:52;7.25;;;4.00;;
39032;SDS011;24794;51.982;5.878;2023-04-05T05:34:53;8.60;;;4.53;;
39032;SDS011;24794;51.982;5.878;2023-04-05T05:35:54;8.40;;;4.45;;
39032;SDS011;24794;51.982;5.878;2023-04-05T05:36:54;8.82;;;5.13;;
39032;SDS011;24794;51.982;5.878;2023-04-05T05:37:55;7.03;;;4.53;;
39032;SDS011;24794;51.982;5.878;2023-04-05T05:38:55;10.73;;;4.22;;
39032;SDS011;24794;51.982;5.878;2023-04-05T05:39:56;8.20;;;4.60;;
39032;SDS011;24794;51.982;5.878;2023-04-05T05:40:57;8.73;;;4.38;;
39032;SDS011;24794;51.982;5.878;2023-04-05T05:41:57;8.40;;;4.55;;
39032;SDS011;24794;51.982;5.878;2023-04-05T05:42:58;10.32;;;5.22;;
39032;SDS011;24794;51.982;5.878;2023-04-05T05:43:58;7.47;;;4.63;;
39032;SDS011;24794;51.982;5.878;2023-04-05T05:45:03;8.18;;;4.60;;
39032;SDS011;24794;51.982;5.878;2023-04-05T05:46:04;7.55;;;4.60;;
39032;SDS011;24794;51.982;5.878;2023-04-05T05:47:05;6.55;;;3.97;;
39032;SDS011;24794;51.982;5.878;2023-04-05T05:48:06;9.23;;;4.93;;
39032;SDS011;24794;51.982;5.878;2023-04-05T05:49:06;7.80;;;4.80;;
39032;SDS011;24794;51.982;5.878;2023-04-05T05:50:07;6.60;;;4.65;;
39032;SDS011;24794;51.982;5.878;2023-04-05T05:51:08;8.27;;;4.22;;
39032;SDS011;24794;51.982;5.878;2023-04-05T05:52:09;9.05;;;4.82;;
39032;SDS011;24794;51.982;5.878;2023-04-05T05:53:10;8.80;;;4.75;;
39032;SDS011;24794;51.982;5.878;2023-04-05T05:54:10;7.13;;;4.50;;
39032;SDS011;24794;51.982;5.878;2023-04-05T05:55:11;8.55;;;4.43;;
39032;SDS011;24794;51.982;5.878;2023-04-05T05:56:11;7.38;;;4.53;;
39032;SDS011;24794;51.982;5.878;2023-04-05T05:57:12;9.65;;;5.10;;
39032;SDS011;24794;51.982;5.878;2023-04-05T05:58:12;8.45;;;4.63;;
39032;SDS011;24794;51.982;5.878;2023-04-05T05:59:13;8.13;;;4.50;;
39032;SDS011;24794;51.982;5.878;2023-04-05T06:00:13;6.00;;;4.07;;
39032;SDS011;24794;51.982;5.878;2023-04-05T06:01:15;7.45;;;4.57;;
39032;SDS011;24794;51.982;5.878;2023-04-05T06:02:15;10.77;;;5.72;;
39032;SDS011;24794;51.982;5.878;2023-04-05T06:03:16;8.82;;;5.35;;
39032;SDS011;24794;51.982;5.878;2023-04-05T06:04:18;7.47;;;4.70;;
39032;SDS011;24794;51.982;5.878;2023-04-05T06:05:18;10.05;;;4.72;;
39032;SDS011;24794;51.982;5.878;2023-04-05T06:06:19;9.95;;;5.32;;
39032;SDS011;24794;51.982;5.878;2023-04-05T06:07:19;8.68;;;4.90;;
39032;SDS011;24794;51.982;5.878;2023-04-05T06:08:21;10.20;;;5.15;;
39032;SDS011;24794;51.982;5.878;2023-04-05T06:09:22;11.07;;;4.93;;
39032;SDS011;24794;51.982;5.878;2023-04-05T06:10:23;6.00;;;4.20;;
39032;SDS011;24794;51.982;5.878;2023-04-05T06:11:24;8.32;;;4.72;;
39032;SDS011;24794;51.982;5.878;2023-04-05T06:12:25;6.93;;;4.13;;
39032;SDS011;24794;51.982;5.878;2023-04-05T06:13:25;9.43;;;4.80;;
39032;SDS011;24794;51.982;5.878;2023-04-05T06:14:26;7.93;;;4.20;;
39032;SDS011;24794;51.982;5.878;2023-04-05T06:15:28;6.38;;;3.47;;
39032;SDS011;24794;51.982;5.878;2023-04-05T06:16:30;7.28;;;4.15;;
39032;SDS011;24794;51.982;5.878;2023-04-05T06:17:30;9.07;;;4.45;;
39032;SDS011;24794;51.982;5.878;2023-04-05T06:18:33;6.22;;;4.30;;
39032;SDS011;24794;51.982;5.878;2023-04-05T06:19:33;6.50;;;4.40;;
39032;SDS011;24794;51.982;5.878;2023-04-05T06:20:34;6.60;;;3.20;;
39032;SDS011;24794;51.982;5.878;2023-04-05T06:21:39;5.45;;;3.70;;
39032;SDS011;24794;51.982;5.878;2023-04-05T06:22:39;6.88;;;3.80;;